sensor_id;sensor_type;location;lat;lon;timestamp;P1;durP1;ratioP1;P2;durP2;ratioP2
68484;SDS011;55472;50.060;21.960;2022-08-03T00:00:59;26.92;;;16.20;;
68484;SDS011;55472;50.060;21.960;2022-08-03T00:03:25;28.43;;;16.20;;
68484;SDS011;55472;50.060;21.960;2022-08-03T00:05:51;25.90;;;15.93;;
68484;SDS011;55472;50.060;21.960;2022-08-03T00:08:17;26.98;;;16.13;;
68484;SDS011;55472;50.060;21.960;2022-08-03T00:10:43;28.23;;;15.85;;
68484;SDS011;55472;50.060;21.960;2022-08-03T00:13:09;26.40;;;15.60;;
68484;SDS011;55472;50.060;21.960;2022-08-03T00:15:37;23.98;;;14.57;;
68484;SDS011;55472;50.060;21.960;2022-08-03T00:18:05;24.00;;;14.88;;
68484;SDS011;55472;50.060;21.960;2022-08-03T00:20:31;25.63;;;15.15;;
68484;SDS011;55472;50.060;21.960;2022-08-03T00:22:57;26.70;;;14.67;;
68484;SDS011;55472;50.060;21.960;2022-08-03T00:25:23;24.97;;;15.87;;
68484;SDS011;55472;50.060;21.960;2022-08-03T00:27:49;24.05;;;15.07;;
68484;SDS011;55472;50.060;21.960;2022-08-03T00:30:15;25.75;;;15.50;;
68484;SDS011;55472;50.060;21.960;2022-08-03T00:32:41;28.45;;;15.48;;
68484;SDS011;55472;50.060;21.960;2022-08-03T00:35:07;26.60;;;14.50;;
68484;SDS011;55472;50.060;21.960;2022-08-03T00:37:33;24.50;;;15.02;;
68484;SDS011;55472;50.060;21.960;2022-08-03T00:39:59;25.42;;;14.63;;
68484;SDS011;55472;50.060;21.960;2022-08-03T00:42:25;24.97;;;15.40;;
68484;SDS011;55472;50.060;21.960;2022-08-03T00:44:51;28.57;;;16.30;;
68484;SDS011;55472;50.060;21.960;2022-08-03T00:47:17;26.95;;;16.45;;
68484;SDS011;55472;50.060;21.960;2022-08-03T00:49:43;29.10;;;15.35;;
68484;SDS011;55472;50.060;21.960;2022-08-03T00:52:09;29.93;;;16.93;;
68484;SDS011;55472;50.060;21.960;2022-08-03T00:54:38;28.55;;;16.45;;
68484;SDS011;55472;50.060;21.960;2022-08-03T00:57:05;25.08;;;15.65;;
68484;SDS011;55472;50.060;21.960;2022-08-03T00:59:32;29.15;;;16.90;;
68484;SDS011;55472;50.060;21.960;2022-08-03T01:01:58;27.88;;;16.17;;
68484;SDS011;55472;50.060;21.960;2022-08-03T01:04:24;26.70;;;16.33;;
68484;SDS011;55472;50.060;21.960;2022-08-03T01:07:02;25.30;;;16.35;;
68484;SDS011;55472;50.060;21.960;2022-08-03T01:09:40;25.75;;;15.45;;
68484;SDS011;55472;50.060;21.960;2022-08-03T01:12:48;28.70;;;16.80;;
68484;SDS011;55472;50.060;21.960;2022-08-03T01:15:28;28.77;;;16.23;;
68484;SDS011;55472;50.060;21.960;2022-08-03T01:18:07;25.50;;;15.75;;
68484;SDS011;55472;50.060;21.960;2022-08-03T01:20:39;27.83;;;15.90;;
68484;SDS011;55472;50.060;21.960;2022-08-03T01:23:23;27.38;;;15.32;;
68484;SDS011;55472;50.060;21.960;2022-08-03T01:26:19;26.80;;;15.45;;
68484;SDS011;55472;50.060;21.960;2022-08-03T01:32:24;27.48;;;15.80;;
68484;SDS011;55472;50.060;21.960;2022-08-03T01:35:08;26.20;;;16.30;;
68484;SDS011;55472;50.060;21.960;2022-08-03T01:37:44;28.00;;;16.52;;
68484;SDS011;55472;50.060;21.960;2022-08-03T01:40:16;27.88;;;16.85;;
68484;SDS011;55472;50.060;21.960;2022-08-03T01:42:45;27.50;;;15.83;;
68484;SDS011;55472;50.060;21.960;2022-08-03T01:45:14;29.48;;;16.52;;
68484;SDS011;55472;50.060;21.960;2022-08-03T01:47:44;28.90;;;17.27;;
68484;SDS011;55472;50.060;21.960;2022-08-03T01:50:11;30.55;;;16.60;;
68484;SDS011;55472;50.060;21.960;2022-08-03T01:52:38;30.25;;;16.65;;
68484;SDS011;55472;50.060;21.960;2022-08-03T01:55:07;27.07;;;16.87;;
68484;SDS011;55472;50.060;21.960;2022-08-03T01:57:35;29.13;;;16.42;;
68484;SDS011;55472;50.060;21.960;2022-08-03T02:00:04;27.63;;;16.73;;
68484;SDS011;55472;50.060;21.960;2022-08-03T02:02:34;29.40;;;16.95;;
68484;SDS011;55472;50.060;21.960;2022-08-03T02:05:02;27.80;;;17.38;;
68484;SDS011;55472;50.060;21.960;2022-08-03T02:07:31;30.73;;;17.40;;
68484;SDS011;55472;50.060;21.960;2022-08-03T02:10:00;28.45;;;16.45;;
68484;SDS011;55472;50.060;21.960;2022-08-03T02:12:29;28.17;;;16.30;;
68484;SDS011;55472;50.060;21.960;2022-08-03T02:14:56;26.77;;;15.93;;
68484;SDS011;55472;50.060;21.960;2022-08-03T02:17:25;28.83;;;16.85;;
68484;SDS011;55472;50.060;21.960;2022-08-03T02:19:52;27.90;;;16.47;;
68484;SDS011;55472;50.060;21.960;2022-08-03T02:22:20;26.05;;;16.60;;
68484;SDS011;55472;50.060;21.960;2022-08-03T02:24:48;25.65;;;16.33;;
68484;SDS011;55472;50.060;21.960;2022-08-03T02:27:17;26.45;;;16.05;;
68484;SDS011;55472;50.060;21.960;2022-08-03T02:29:48;29.50;;;17.10;;
68484;SDS011;55472;50.060;21.960;2022-08-03T02:32:20;25.27;;;15.97;;
68484;SDS011;55472;50.060;21.960;2022-08-03T02:34:54;26.60;;;16.58;;
68484;SDS011;55472;50.060;21.960;2022-08-03T02:37:24;30.75;;;17.63;;
68484;SDS011;55472;50.060;21.960;2022-08-03T02:39:56;29.13;;;16.45;;
68484;SDS011;55472;50.060;21.960;2022-08-03T02:42:26;27.35;;;16.35;;
68484;SDS011;55472;50.060;21.960;2022-08-03T02:44:54;27.17;;;16.60;;
68484;SDS011;55472;50.060;21.960;2022-08-03T02:47:24;28.25;;;16.77;;
68484;SDS011;55472;50.060;21.960;2022-08-03T02:49:53;26.33;;;15.73;;
68484;SDS011;55472;50.060;21.960;2022-08-03T02:52:23;25.10;;;16.08;;
68484;SDS011;55472;50.060;21.960;2022-08-03T02:54:54;33.47;;;16.50;;
68484;SDS011;55472;50.060;21.960;2022-08-03T02:57:25;25.67;;;16.03;;
68484;SDS011;55472;50.060;21.960;2022-08-03T02:59:53;24.33;;;16.10;;
68484;SDS011;55472;50.060;21.960;2022-08-03T03:02:23;25.63;;;16.08;;
68484;SDS011;55472;50.060;21.960;2022-08-03T03:04:50;27.30;;;16.08;;
68484;SDS011;55472;50.060;21.960;2022-08-03T03:07:17;29.88;;;17.55;;
68484;SDS011;55472;50.060;21.960;2022-08-03T03:09:44;27.33;;;16.47;;
68484;SDS011;55472;50.060;21.960;2022-08-03T03:12:11;27.40;;;16.08;;
68484;SDS011;55472;50.060;21.960;2022-08-03T03:14:38;27.20;;;16.05;;
68484;SDS011;55472;50.060;21.960;2022-08-03T03:17:08;25.80;;;15.93;;
68484;SDS011;55472;50.060;21.960;2022-08-03T03:19:35;27.58;;;15.90;;
68484;SDS011;55472;50.060;21.960;2022-08-03T03:22:04;27.13;;;16.90;;
68484;SDS011;55472;50.060;21.960;2022-08-03T03:24:33;29.38;;;16.10;;
68484;SDS011;55472;50.060;21.960;2022-08-03T03:27:00;27.23;;;15.85;;
68484;SDS011;55472;50.060;21.960;2022-08-03T03:29:27;27.95;;;16.27;;
68484;SDS011;55472;50.060;21.960;2022-08-03T03:31:53;25.90;;;16.20;;
68484;SDS011;55472;50.060;21.960;2022-08-03T03:34:21;26.77;;;15.67;;
68484;SDS011;55472;50.060;21.960;2022-08-03T03:36:48;27.40;;;15.65;;
68484;SDS011;55472;50.060;21.960;2022-08-03T03:39:14;26.63;;;16.25;;
68484;SDS011;55472;50.060;21.960;2022-08-03T03:41:40;25.30;;;16.13;;
68484;SDS011;55472;50.060;21.960;2022-08-03T03:44:06;24.50;;;15.30;;
68484;SDS011;55472;50.060;21.960;2022-08-03T03:46:32;25.43;;;16.03;;
68484;SDS011;55472;50.060;21.960;2022-08-03T03:48:58;26.45;;;16.92;;
68484;SDS011;55472;50.060;21.960;2022-08-03T03:51:24;27.15;;;16.05;;
68484;SDS011;55472;50.060;21.960;2022-08-03T03:53:54;26.70;;;16.30;;
68484;SDS011;55472;50.060;21.960;2022-08-03T03:56:28;25.43;;;16.30;;
68484;SDS011;55472;50.060;21.960;2022-08-03T03:58:54;27.20;;;16.42;;
68484;SDS011;55472;50.060;21.960;2022-08-03T04:01:20;29.70;;;16.23;;
68484;SDS011;55472;50.060;21.960;2022-08-03T04:03:47;26.55;;;16.75;;
68484;SDS011;55472;50.060;21.960;2022-08-03T04:06:13;24.83;;;16.03;;
68484;SDS011;55472;50.060;21.960;2022-08-03T04:08:59;29.27;;;17.15;;
68484;SDS011;55472;50.060;21.960;2022-08-03T04:11:54;24.75;;;16.35;;
68484;SDS011;55472;50.060;21.960;2022-08-03T04:14:28;23.80;;;15.40;;
68484;SDS011;55472;50.060;21.960;2022-08-03T04:17:00;25.33;;;15.10;;
68484;SDS011;55472;50.060;21.960;2022-08-03T04:19:31;26.67;;;15.87;;
68484;SDS011;55472;50.060;21.960;2022-08-03T04:22:06;24.35;;;15.60;;
68484;SDS011;55472;50.060;21.960;2022-08-03T04:25:18;23.88;;;15.23;;
68484;SDS011;55472;50.060;21.960;2022-08-03T04:27:30;27.30;;;14.82;;
68484;SDS011;55472;50.060;21.960;2022-08-03T04:30:02;23.33;;;15.40;;
68484;SDS011;55472;50.060;21.960;2022-08-03T04:32:30;27.47;;;15.50;;
68484;SDS011;55472;50.060;21.960;2022-08-03T04:34:57;25.92;;;15.23;;
68484;SDS011;55472;50.060;21.960;2022-08-03T04:37:25;24.67;;;14.73;;
68484;SDS011;55472;50.060;21.960;2022-08-03T04:40:08;25.35;;;15.65;;
68484;SDS011;55472;50.060;21.960;2022-08-03T04:42:39;22.55;;;14.70;;
68484;SDS011;55472;50.060;21.960;2022-08-03T04:45:06;25.87;;;15.07;;
68484;SDS011;55472;50.060;21.960;2022-08-03T04:47:37;24.75;;;15.60;;
68484;SDS011;55472;50.060;21.960;2022-08-03T04:50:04;25.08;;;15.55;;
68484;SDS011;55472;50.060;21.960;2022-08-03T04:52:32;27.25;;;15.93;;
68484;SDS011;55472;50.060;21.960;2022-08-03T04:54:58;25.27;;;14.95;;
68484;SDS011;55472;50.060;21.960;2022-08-03T04:57:25;24.70;;;15.97;;
68484;SDS011;55472;50.060;21.960;2022-08-03T04:59:51;26.38;;;15.90;;
68484;SDS011;55472;50.060;21.960;2022-08-03T05:02:21;27.17;;;16.40;;
68484;SDS011;55472;50.060;21.960;2022-08-03T05:04:48;26.83;;;16.50;;
68484;SDS011;55472;50.060;21.960;2022-08-03T05:07:15;29.13;;;18.02;;
68484;SDS011;55472;50.060;21.960;2022-08-03T05:09:42;26.27;;;16.23;;
68484;SDS011;55472;50.060;21.960;2022-08-03T05:12:08;24.88;;;14.77;;
68484;SDS011;55472;50.060;21.960;2022-08-03T05:14:35;25.38;;;16.45;;
68484;SDS011;55472;50.060;21.960;2022-08-03T05:17:06;25.48;;;15.02;;
68484;SDS011;55472;50.060;21.960;2022-08-03T05:19:33;28.08;;;15.73;;
68484;SDS011;55472;50.060;21.960;2022-08-03T05:22:00;26.10;;;16.97;;
68484;SDS011;55472;50.060;21.960;2022-08-03T05:24:26;26.15;;;16.67;;
68484;SDS011;55472;50.060;21.960;2022-08-03T05:26:52;28.02;;;17.42;;
68484;SDS011;55472;50.060;21.960;2022-08-03T05:29:18;31.45;;;17.90;;
68484;SDS011;55472;50.060;21.960;2022-08-03T05:31:44;28.27;;;17.63;;
68484;SDS011;55472;50.060;21.960;2022-08-03T05:34:10;26.43;;;16.17;;
68484;SDS011;55472;50.060;21.960;2022-08-03T05:36:35;26.88;;;16.05;;
68484;SDS011;55472;50.060;21.960;2022-08-03T05:39:01;27.17;;;17.10;;
68484;SDS011;55472;50.060;21.960;2022-08-03T05:41:27;28.17;;;15.97;;
68484;SDS011;55472;50.060;21.960;2022-08-03T05:43:53;26.98;;;16.50;;
68484;SDS011;55472;50.060;21.960;2022-08-03T05:46:20;26.98;;;15.43;;
68484;SDS011;55472;50.060;21.960;2022-08-03T05:48:47;31.00;;;19.27;;
68484;SDS011;55472;50.060;21.960;2022-08-03T05:51:13;29.43;;;18.27;;
68484;SDS011;55472;50.060;21.960;2022-08-03T05:53:39;28.63;;;16.40;;
68484;SDS011;55472;50.060;21.960;2022-08-03T05:56:06;25.85;;;16.73;;
68484;SDS011;55472;50.060;21.960;2022-08-03T05:58:33;27.15;;;15.98;;
68484;SDS011;55472;50.060;21.960;2022-08-03T06:00:58;27.93;;;16.10;;
68484;SDS011;55472;50.060;21.960;2022-08-03T06:03:24;27.80;;;16.88;;
68484;SDS011;55472;50.060;21.960;2022-08-03T06:05:52;25.63;;;16.17;;
68484;SDS011;55472;50.060;21.960;2022-08-03T06:08:20;26.52;;;15.68;;
68484;SDS011;55472;50.060;21.960;2022-08-03T06:10:47;27.15;;;16.67;;
68484;SDS011;55472;50.060;21.960;2022-08-03T06:13:14;28.97;;;15.67;;
68484;SDS011;55472;50.060;21.960;2022-08-03T06:15:40;26.55;;;16.17;;
68484;SDS011;55472;50.060;21.960;2022-08-03T06:18:06;26.75;;;16.92;;
68484;SDS011;55472;50.060;21.960;2022-08-03T06:20:32;26.83;;;17.35;;
68484;SDS011;55472;50.060;21.960;2022-08-03T06:22:58;26.80;;;16.40;;
68484;SDS011;55472;50.060;21.960;2022-08-03T06:25:25;29.23;;;16.25;;
68484;SDS011;55472;50.060;21.960;2022-08-03T06:27:51;28.85;;;17.42;;
68484;SDS011;55472;50.060;21.960;2022-08-03T06:30:17;31.48;;;18.23;;
68484;SDS011;55472;50.060;21.960;2022-08-03T06:32:43;28.60;;;17.20;;
68484;SDS011;55472;50.060;21.960;2022-08-03T06:35:09;28.53;;;17.43;;
68484;SDS011;55472;50.060;21.960;2022-08-03T06:37:48;27.48;;;18.02;;
68484;SDS011;55472;50.060;21.960;2022-08-03T06:40:17;27.05;;;17.33;;
68484;SDS011;55472;50.060;21.960;2022-08-03T06:42:52;26.80;;;16.60;;
68484;SDS011;55472;50.060;21.960;2022-08-03T06:45:19;27.50;;;17.47;;
68484;SDS011;55472;50.060;21.960;2022-08-03T06:47:45;27.92;;;17.35;;
68484;SDS011;55472;50.060;21.960;2022-08-03T06:50:10;23.02;;;14.70;;
68484;SDS011;55472;50.060;21.960;2022-08-03T06:52:37;24.25;;;14.98;;
68484;SDS011;55472;50.060;21.960;2022-08-03T06:55:03;25.33;;;16.70;;
68484;SDS011;55472;50.060;21.960;2022-08-03T06:57:30;26.63;;;15.50;;
68484;SDS011;55472;50.060;21.960;2022-08-03T06:59:56;25.73;;;16.63;;
68484;SDS011;55472;50.060;21.960;2022-08-03T07:02:26;28.77;;;16.95;;
68484;SDS011;55472;50.060;21.960;2022-08-03T07:04:53;27.77;;;16.57;;
68484;SDS011;55472;50.060;21.960;2022-08-03T07:07:19;24.15;;;16.23;;
68484;SDS011;55472;50.060;21.960;2022-08-03T07:09:45;26.20;;;16.85;;
68484;SDS011;55472;50.060;21.960;2022-08-03T07:12:12;27.13;;;17.23;;
68484;SDS011;55472;50.060;21.960;2022-08-03T07:14:38;27.17;;;16.83;;
68484;SDS011;55472;50.060;21.960;2022-08-03T07:17:04;29.23;;;17.67;;
68484;SDS011;55472;50.060;21.960;2022-08-03T07:19:30;29.15;;;19.33;;
68484;SDS011;55472;50.060;21.960;2022-08-03T07:21:56;29.08;;;18.50;;
68484;SDS011;55472;50.060;21.960;2022-08-03T07:24:23;29.90;;;19.23;;
68484;SDS011;55472;50.060;21.960;2022-08-03T07:26:49;27.50;;;18.45;;
68484;SDS011;55472;50.060;21.960;2022-08-03T07:29:15;31.20;;;18.38;;
68484;SDS011;55472;50.060;21.960;2022-08-03T07:31:41;28.27;;;18.13;;
68484;SDS011;55472;50.060;21.960;2022-08-03T07:34:07;27.60;;;17.80;;
68484;SDS011;55472;50.060;21.960;2022-08-03T07:36:33;30.10;;;17.10;;
68484;SDS011;55472;50.060;21.960;2022-08-03T07:38:58;25.63;;;17.10;;
68484;SDS011;55472;50.060;21.960;2022-08-03T07:41:25;23.95;;;16.63;;
68484;SDS011;55472;50.060;21.960;2022-08-03T07:43:51;24.65;;;16.40;;
68484;SDS011;55472;50.060;21.960;2022-08-03T07:46:16;24.93;;;16.87;;
68484;SDS011;55472;50.060;21.960;2022-08-03T07:48:42;27.23;;;16.58;;
68484;SDS011;55472;50.060;21.960;2022-08-03T07:51:08;24.15;;;15.85;;
68484;SDS011;55472;50.060;21.960;2022-08-03T07:53:34;22.13;;;14.77;;
68484;SDS011;55472;50.060;21.960;2022-08-03T07:56:00;25.92;;;15.48;;
68484;SDS011;55472;50.060;21.960;2022-08-03T07:58:26;21.80;;;15.10;;
68484;SDS011;55472;50.060;21.960;2022-08-03T08:00:52;21.75;;;14.43;;
68484;SDS011;55472;50.060;21.960;2022-08-03T08:03:20;20.57;;;14.67;;
68484;SDS011;55472;50.060;21.960;2022-08-03T08:05:47;22.85;;;13.93;;
68484;SDS011;55472;50.060;21.960;2022-08-03T08:08:13;24.27;;;14.77;;
68484;SDS011;55472;50.060;21.960;2022-08-03T08:10:39;21.00;;;13.95;;
68484;SDS011;55472;50.060;21.960;2022-08-03T08:13:05;20.40;;;13.02;;
68484;SDS011;55472;50.060;21.960;2022-08-03T08:15:31;21.57;;;14.47;;
68484;SDS011;55472;50.060;21.960;2022-08-03T08:17:58;19.65;;;13.45;;
68484;SDS011;55472;50.060;21.960;2022-08-03T08:20:33;15.98;;;11.98;;
68484;SDS011;55472;50.060;21.960;2022-08-03T08:23:04;19.98;;;11.60;;
68484;SDS011;55472;50.060;21.960;2022-08-03T08:25:32;17.47;;;12.20;;
68484;SDS011;55472;50.060;21.960;2022-08-03T08:27:58;16.85;;;11.85;;
68484;SDS011;55472;50.060;21.960;2022-08-03T08:30:29;20.05;;;11.63;;
68484;SDS011;55472;50.060;21.960;2022-08-03T08:32:57;19.58;;;10.77;;
68484;SDS011;55472;50.060;21.960;2022-08-03T08:35:23;14.88;;;9.88;;
68484;SDS011;55472;50.060;21.960;2022-08-03T08:37:49;14.23;;;10.37;;
68484;SDS011;55472;50.060;21.960;2022-08-03T08:40:15;12.55;;;9.45;;
68484;SDS011;55472;50.060;21.960;2022-08-03T08:42:42;12.32;;;8.43;;
68484;SDS011;55472;50.060;21.960;2022-08-03T08:45:09;14.68;;;8.82;;
68484;SDS011;55472;50.060;21.960;2022-08-03T08:47:37;10.67;;;6.70;;
68484;SDS011;55472;50.060;21.960;2022-08-03T08:50:06;8.75;;;5.78;;
68484;SDS011;55472;50.060;21.960;2022-08-03T08:52:33;10.73;;;6.78;;
68484;SDS011;55472;50.060;21.960;2022-08-03T08:55:01;10.30;;;6.80;;
68484;SDS011;55472;50.060;21.960;2022-08-03T08:57:37;10.32;;;6.93;;
68484;SDS011;55472;50.060;21.960;2022-08-03T09:00:10;12.07;;;7.40;;
68484;SDS011;55472;50.060;21.960;2022-08-03T09:02:38;9.82;;;6.60;;
68484;SDS011;55472;50.060;21.960;2022-08-03T09:05:13;10.55;;;6.63;;
68484;SDS011;55472;50.060;21.960;2022-08-03T09:07:42;9.40;;;6.60;;
68484;SDS011;55472;50.060;21.960;2022-08-03T09:10:10;12.13;;;7.40;;
68484;SDS011;55472;50.060;21.960;2022-08-03T09:12:38;13.57;;;7.07;;
68484;SDS011;55472;50.060;21.960;2022-08-03T09:15:15;10.48;;;6.28;;
68484;SDS011;55472;50.060;21.960;2022-08-03T09:17:42;10.68;;;6.65;;
68484;SDS011;55472;50.060;21.960;2022-08-03T09:20:08;9.82;;;6.05;;
68484;SDS011;55472;50.060;21.960;2022-08-03T09:22:34;9.65;;;6.13;;
68484;SDS011;55472;50.060;21.960;2022-08-03T09:25:28;9.53;;;5.87;;
68484;SDS011;55472;50.060;21.960;2022-08-03T09:28:04;8.23;;;5.65;;
68484;SDS011;55472;50.060;21.960;2022-08-03T09:30:34;10.40;;;5.72;;
68484;SDS011;55472;50.060;21.960;2022-08-03T09:33:02;10.20;;;5.50;;
68484;SDS011;55472;50.060;21.960;2022-08-03T09:35:41;6.72;;;4.85;;
68484;SDS011;55472;50.060;21.960;2022-08-03T09:38:14;7.07;;;4.80;;
68484;SDS011;55472;50.060;21.960;2022-08-03T09:40:50;6.47;;;4.45;;
68484;SDS011;55472;50.060;21.960;2022-08-03T09:43:17;6.50;;;5.05;;
68484;SDS011;55472;50.060;21.960;2022-08-03T09:45:43;9.40;;;4.65;;
68484;SDS011;55472;50.060;21.960;2022-08-03T09:48:23;8.85;;;5.40;;
68484;SDS011;55472;50.060;21.960;2022-08-03T09:50:55;10.67;;;5.07;;
68484;SDS011;55472;50.060;21.960;2022-08-03T09:53:26;8.75;;;4.47;;
68484;SDS011;55472;50.060;21.960;2022-08-03T09:55:56;6.57;;;4.05;;
68484;SDS011;55472;50.060;21.960;2022-08-03T09:58:25;7.40;;;4.68;;
68484;SDS011;55472;50.060;21.960;2022-08-03T10:03:27;8.10;;;5.20;;
68484;SDS011;55472;50.060;21.960;2022-08-03T10:06:13;7.78;;;5.30;;
68484;SDS011;55472;50.060;21.960;2022-08-03T10:08:48;7.18;;;5.10;;
68484;SDS011;55472;50.060;21.960;2022-08-03T10:11:38;8.38;;;4.35;;
68484;SDS011;55472;50.060;21.960;2022-08-03T10:14:07;8.27;;;4.82;;
68484;SDS011;55472;50.060;21.960;2022-08-03T10:16:43;6.50;;;4.73;;
68484;SDS011;55472;50.060;21.960;2022-08-03T10:19:11;8.43;;;4.80;;
68484;SDS011;55472;50.060;21.960;2022-08-03T10:21:39;8.68;;;4.72;;
68484;SDS011;55472;50.060;21.960;2022-08-03T10:24:11;6.05;;;3.97;;
68484;SDS011;55472;50.060;21.960;2022-08-03T10:26:40;5.00;;;3.00;;
68484;SDS011;55472;50.060;21.960;2022-08-03T10:29:11;4.77;;;2.70;;
68484;SDS011;55472;50.060;21.960;2022-08-03T10:31:44;7.07;;;3.40;;
68484;SDS011;55472;50.060;21.960;2022-08-03T10:34:24;4.70;;;2.88;;
68484;SDS011;55472;50.060;21.960;2022-08-03T10:36:52;8.35;;;3.30;;
68484;SDS011;55472;50.060;21.960;2022-08-03T10:39:26;6.22;;;3.13;;
68484;SDS011;55472;50.060;21.960;2022-08-03T10:41:54;7.03;;;3.63;;
68484;SDS011;55472;50.060;21.960;2022-08-03T10:44:23;6.85;;;4.50;;
68484;SDS011;55472;50.060;21.960;2022-08-03T10:46:58;5.60;;;4.28;;
68484;SDS011;55472;50.060;21.960;2022-08-03T10:49:24;6.72;;;5.00;;
68484;SDS011;55472;50.060;21.960;2022-08-03T10:51:51;7.47;;;4.63;;
68484;SDS011;55472;50.060;21.960;2022-08-03T10:57:01;7.05;;;4.97;;
68484;SDS011;55472;50.060;21.960;2022-08-03T11:02:15;7.65;;;4.32;;
68484;SDS011;55472;50.060;21.960;2022-08-03T11:04:44;9.70;;;5.10;;
68484;SDS011;55472;50.060;21.960;2022-08-03T11:09:50;6.72;;;3.95;;
68484;SDS011;55472;50.060;21.960;2022-08-03T11:14:53;7.95;;;3.95;;
68484;SDS011;55472;50.060;21.960;2022-08-03T11:17:21;8.88;;;4.25;;
68484;SDS011;55472;50.060;21.960;2022-08-03T11:19:51;6.43;;;4.03;;
68484;SDS011;55472;50.060;21.960;2022-08-03T11:22:19;10.30;;;4.10;;
68484;SDS011;55472;50.060;21.960;2022-08-03T11:27:25;8.20;;;4.25;;
68484;SDS011;55472;50.060;21.960;2022-08-03T11:35:10;6.95;;;3.90;;
68484;SDS011;55472;50.060;21.960;2022-08-03T11:40:45;7.18;;;3.90;;
68484;SDS011;55472;50.060;21.960;2022-08-03T11:46:02;11.57;;;3.90;;
68484;SDS011;55472;50.060;21.960;2022-08-03T11:48:38;7.55;;;4.20;;
68484;SDS011;55472;50.060;21.960;2022-08-03T11:51:21;10.30;;;4.40;;
68484;SDS011;55472;50.060;21.960;2022-08-03T11:54:00;5.68;;;3.90;;
68484;SDS011;55472;50.060;21.960;2022-08-03T11:56:35;6.30;;;3.60;;
68484;SDS011;55472;50.060;21.960;2022-08-03T11:59:12;8.57;;;3.70;;
68484;SDS011;55472;50.060;21.960;2022-08-03T12:01:39;5.97;;;3.58;;
68484;SDS011;55472;50.060;21.960;2022-08-03T12:04:05;5.15;;;3.22;;
68484;SDS011;55472;50.060;21.960;2022-08-03T12:06:31;4.82;;;3.30;;
68484;SDS011;55472;50.060;21.960;2022-08-03T12:09:17;6.07;;;3.20;;
68484;SDS011;55472;50.060;21.960;2022-08-03T12:11:46;10.07;;;3.47;;
68484;SDS011;55472;50.060;21.960;2022-08-03T12:14:20;7.30;;;3.30;;
68484;SDS011;55472;50.060;21.960;2022-08-03T12:16:46;6.10;;;3.10;;
68484;SDS011;55472;50.060;21.960;2022-08-03T12:19:13;5.18;;;3.13;;
68484;SDS011;55472;50.060;21.960;2022-08-03T12:21:46;4.73;;;3.40;;
68484;SDS011;55472;50.060;21.960;2022-08-03T12:24:16;5.20;;;3.35;;
68484;SDS011;55472;50.060;21.960;2022-08-03T12:26:46;5.25;;;3.45;;
68484;SDS011;55472;50.060;21.960;2022-08-03T12:29:18;7.60;;;3.22;;
68484;SDS011;55472;50.060;21.960;2022-08-03T12:31:45;6.47;;;3.53;;
68484;SDS011;55472;50.060;21.960;2022-08-03T12:34:11;6.10;;;3.43;;
68484;SDS011;55472;50.060;21.960;2022-08-03T12:36:37;6.03;;;3.40;;
68484;SDS011;55472;50.060;21.960;2022-08-03T12:39:24;5.80;;;3.40;;
68484;SDS011;55472;50.060;21.960;2022-08-03T12:41:52;6.72;;;3.50;;
68484;SDS011;55472;50.060;21.960;2022-08-03T12:44:33;6.70;;;3.50;;
68484;SDS011;55472;50.060;21.960;2022-08-03T12:47:00;6.67;;;3.17;;
68484;SDS011;55472;50.060;21.960;2022-08-03T12:49:28;6.00;;;3.20;;
68484;SDS011;55472;50.060;21.960;2022-08-03T12:52:10;6.40;;;3.47;;
68484;SDS011;55472;50.060;21.960;2022-08-03T12:54:36;7.07;;;3.53;;
68484;SDS011;55472;50.060;21.960;2022-08-03T12:57:03;7.53;;;4.20;;
68484;SDS011;55472;50.060;21.960;2022-08-03T12:59:36;5.57;;;3.40;;
68484;SDS011;55472;50.060;21.960;2022-08-03T13:02:14;6.80;;;3.28;;
68484;SDS011;55472;50.060;21.960;2022-08-03T13:04:48;5.25;;;3.13;;
68484;SDS011;55472;50.060;21.960;2022-08-03T13:07:21;6.68;;;3.03;;
68484;SDS011;55472;50.060;21.960;2022-08-03T13:12:19;5.25;;;3.30;;
68484;SDS011;55472;50.060;21.960;2022-08-03T13:14:50;6.82;;;3.00;;
68484;SDS011;55472;50.060;21.960;2022-08-03T13:17:20;5.55;;;3.20;;
68484;SDS011;55472;50.060;21.960;2022-08-03T13:19:47;6.90;;;3.28;;
68484;SDS011;55472;50.060;21.960;2022-08-03T13:22:15;7.17;;;3.17;;
68484;SDS011;55472;50.060;21.960;2022-08-03T13:24:52;6.63;;;2.97;;
68484;SDS011;55472;50.060;21.960;2022-08-03T13:27:23;6.40;;;3.22;;
68484;SDS011;55472;50.060;21.960;2022-08-03T13:29:49;5.68;;;3.03;;
68484;SDS011;55472;50.060;21.960;2022-08-03T13:32:17;4.32;;;2.95;;
68484;SDS011;55472;50.060;21.960;2022-08-03T13:34:43;6.27;;;3.23;;
68484;SDS011;55472;50.060;21.960;2022-08-03T13:37:09;5.47;;;3.40;;
68484;SDS011;55472;50.060;21.960;2022-08-03T13:39:39;5.43;;;3.28;;
68484;SDS011;55472;50.060;21.960;2022-08-03T13:42:07;4.60;;;2.83;;
68484;SDS011;55472;50.060;21.960;2022-08-03T13:44:33;4.75;;;3.15;;
68484;SDS011;55472;50.060;21.960;2022-08-03T13:47:01;4.63;;;3.10;;
68484;SDS011;55472;50.060;21.960;2022-08-03T13:49:28;6.93;;;2.80;;
68484;SDS011;55472;50.060;21.960;2022-08-03T13:51:57;5.75;;;3.00;;
68484;SDS011;55472;50.060;21.960;2022-08-03T13:54:23;4.22;;;2.92;;
68484;SDS011;55472;50.060;21.960;2022-08-03T13:56:49;6.63;;;3.00;;
68484;SDS011;55472;50.060;21.960;2022-08-03T13:59:22;4.70;;;2.90;;
68484;SDS011;55472;50.060;21.960;2022-08-03T14:01:49;5.47;;;2.83;;
68484;SDS011;55472;50.060;21.960;2022-08-03T14:04:18;7.38;;;2.72;;
68484;SDS011;55472;50.060;21.960;2022-08-03T14:06:44;4.70;;;2.50;;
68484;SDS011;55472;50.060;21.960;2022-08-03T14:09:15;5.97;;;2.90;;
68484;SDS011;55472;50.060;21.960;2022-08-03T14:11:42;4.73;;;3.07;;
68484;SDS011;55472;50.060;21.960;2022-08-03T14:14:09;13.45;;;8.75;;
68484;SDS011;55472;50.060;21.960;2022-08-03T14:16:35;10.60;;;6.45;;
68484;SDS011;55472;50.060;21.960;2022-08-03T14:19:02;8.77;;;3.35;;
68484;SDS011;55472;50.060;21.960;2022-08-03T14:21:29;6.40;;;3.10;;
68484;SDS011;55472;50.060;21.960;2022-08-03T14:23:55;4.53;;;2.93;;
68484;SDS011;55472;50.060;21.960;2022-08-03T14:26:21;5.47;;;3.00;;
68484;SDS011;55472;50.060;21.960;2022-08-03T14:28:47;7.30;;;2.90;;
68484;SDS011;55472;50.060;21.960;2022-08-03T14:31:13;5.25;;;2.97;;
68484;SDS011;55472;50.060;21.960;2022-08-03T14:33:39;4.17;;;2.77;;
68484;SDS011;55472;50.060;21.960;2022-08-03T14:36:05;8.07;;;2.78;;
68484;SDS011;55472;50.060;21.960;2022-08-03T14:38:31;4.25;;;2.80;;
68484;SDS011;55472;50.060;21.960;2022-08-03T14:40:57;5.15;;;2.67;;
68484;SDS011;55472;50.060;21.960;2022-08-03T14:43:23;3.97;;;2.65;;
68484;SDS011;55472;50.060;21.960;2022-08-03T14:45:50;8.63;;;2.77;;
68484;SDS011;55472;50.060;21.960;2022-08-03T14:48:19;5.60;;;2.88;;
68484;SDS011;55472;50.060;21.960;2022-08-03T14:50:47;4.53;;;2.90;;
68484;SDS011;55472;50.060;21.960;2022-08-03T14:53:13;7.40;;;3.00;;
68484;SDS011;55472;50.060;21.960;2022-08-03T14:55:41;5.15;;;3.17;;
68484;SDS011;55472;50.060;21.960;2022-08-03T14:58:08;4.80;;;2.90;;
68484;SDS011;55472;50.060;21.960;2022-08-03T15:00:34;5.00;;;3.08;;
68484;SDS011;55472;50.060;21.960;2022-08-03T15:03:01;5.40;;;2.90;;